createdAt,value
2023-04-29T00:00:51.011Z,557.00
2023-04-29T00:01:51.113Z,559.00
2023-04-29T00:02:51.186Z,557.00
2023-04-29T00:03:51.259Z,557.00
2023-04-29T00:04:51.367Z,554.00
2023-04-29T00:05:51.306Z,554.00
2023-04-29T00:06:51.347Z,555.00
2023-04-29T00:07:51.374Z,555.00
2023-04-29T00:08:51.423Z,555.00
2023-04-29T00:09:51.607Z,556.00
2023-04-29T00:10:51.508Z,554.00
2023-04-29T00:11:51.602Z,554.00
2023-04-29T00:12:51.610Z,553.00
2023-04-29T00:13:51.665Z,552.00
2023-04-29T00:14:51.720Z,551.00
2023-04-29T00:15:51.764Z,549.00
2023-04-29T00:16:51.873Z,551.00
2023-04-29T00:17:51.954Z,550.00
2023-04-29T00:18:51.900Z,550.00
2023-04-29T00:19:52.198Z,549.00
2023-04-29T00:20:52.009Z,551.00
2023-04-29T00:21:52.071Z,552.00
2023-04-29T00:22:52.130Z,551.00
2023-04-29T00:23:52.208Z,549.00
2023-04-29T00:24:52.226Z,550.00
2023-04-29T00:25:52.305Z,551.00
2023-04-29T00:26:52.312Z,550.00
2023-04-29T00:27:52.356Z,551.00
2023-04-29T00:28:52.420Z,553.00
2023-04-29T00:29:52.937Z,555.00
2023-04-29T00:30:52.557Z,557.00
2023-04-29T00:31:52.653Z,557.00
2023-04-29T00:32:52.678Z,557.00
2023-04-29T00:33:52.746Z,557.00
2023-04-29T00:34:52.774Z,558.00
2023-04-29T00:35:52.776Z,559.00
2023-04-29T00:36:52.818Z,560.00
2023-04-29T00:37:52.913Z,558.00
2023-04-29T00:38:52.963Z,558.00
2023-04-29T00:39:53.174Z,556.00
2023-04-29T00:40:53.148Z,555.00
2023-04-29T00:41:53.137Z,553.00
2023-04-29T00:42:53.187Z,550.00
2023-04-29T00:43:53.250Z,551.00
2023-04-29T00:44:53.306Z,552.00
2023-04-29T00:45:53.368Z,555.00
2023-04-29T00:46:53.404Z,558.00
2023-04-29T00:47:53.467Z,558.00
2023-04-29T00:48:53.480Z,560.00
2023-04-29T00:49:53.726Z,560.00
2023-04-29T00:50:53.657Z,560.00
2023-04-29T00:51:53.654Z,560.00
2023-04-29T00:52:53.714Z,558.00
2023-04-29T00:53:53.764Z,557.00
2023-04-29T00:54:53.938Z,555.00
2023-04-29T00:55:53.951Z,554.00
2023-04-29T00:56:53.952Z,554.00
2023-04-29T00:57:53.998Z,555.00
2023-04-29T00:58:54.072Z,553.00
2023-04-29T00:59:54.358Z,557.00
2023-04-29T01:00:55.993Z,557.00
2023-04-29T01:01:54.292Z,555.00
2023-04-29T01:02:54.344Z,559.00
2023-04-29T01:03:54.430Z,560.00
2023-04-29T01:04:54.590Z,561.00
2023-04-29T01:05:54.464Z,558.00
2023-04-29T01:06:54.532Z,559.00
2023-04-29T01:07:54.568Z,559.00
2023-04-29T01:08:54.644Z,559.00
2023-04-29T01:09:54.885Z,558.00
2023-04-29T01:10:54.768Z,556.00
2023-04-29T01:11:54.820Z,554.00
2023-04-29T01:12:54.888Z,553.00
2023-04-29T01:13:54.940Z,555.00
2023-04-29T01:14:54.953Z,555.00
2023-04-29T01:15:55.046Z,554.00
2023-04-29T01:16:55.047Z,553.00
2023-04-29T01:17:55.220Z,552.00
2023-04-29T01:18:55.231Z,554.00
2023-04-29T01:19:55.346Z,555.00
2023-04-29T01:20:55.310Z,552.00
2023-04-29T01:21:55.345Z,552.00
2023-04-29T01:22:55.453Z,552.00
2023-04-29T01:23:55.503Z,550.00
2023-04-29T01:24:55.599Z,550.00
2023-04-29T01:25:55.602Z,551.00
2023-04-29T01:26:55.654Z,551.00
2023-04-29T01:27:55.698Z,551.00
2023-04-29T01:28:55.744Z,550.00
2023-04-29T01:29:55.819Z,550.00
2023-04-29T01:30:55.856Z,550.00
2023-04-29T01:31:56.030Z,550.00
2023-04-29T01:32:55.998Z,551.00
2023-04-29T01:33:55.983Z,549.00
2023-04-29T01:34:56.070Z,550.00
2023-04-29T01:35:56.162Z,549.00
2023-04-29T01:36:56.166Z,551.00
2023-04-29T01:37:56.225Z,553.00
2023-04-29T01:38:56.340Z,557.00
2023-04-29T01:39:56.341Z,556.00
2023-04-29T01:40:56.408Z,557.00
2023-04-29T01:41:56.446Z,558.00
2023-04-29T01:42:56.510Z,559.00
2023-04-29T01:43:56.551Z,557.00
2023-04-29T01:44:56.643Z,557.00
2023-04-29T01:45:56.669Z,558.00
2023-04-29T01:46:56.942Z,558.00
2023-04-29T01:47:56.855Z,556.00
2023-04-29T01:48:56.821Z,556.00
2023-04-29T01:49:56.914Z,555.00
2023-04-29T01:50:56.976Z,554.00
2023-04-29T01:51:57.014Z,555.00
2023-04-29T01:52:57.092Z,556.00
2023-04-29T01:53:57.150Z,555.00
2023-04-29T01:54:57.227Z,556.00
2023-04-29T01:55:57.257Z,558.00
2023-04-29T01:56:57.358Z,559.00
2023-04-29T01:57:57.413Z,558.00
2023-04-29T01:58:57.879Z,558.00
2023-04-29T01:59:57.499Z,557.00
2023-04-29T02:00:57.657Z,557.00
2023-04-29T02:01:57.609Z,558.00
2023-04-29T02:02:57.776Z,555.00
2023-04-29T02:03:57.778Z,556.00
2023-04-29T02:04:57.795Z,554.00
2023-04-29T02:05:57.810Z,553.00
2023-04-29T02:06:57.908Z,550.00
2023-04-29T02:07:57.919Z,550.00
2023-04-29T02:08:57.955Z,551.00
2023-04-29T02:09:58.042Z,551.00
2023-04-29T02:10:58.181Z,552.00
2023-04-29T02:11:58.141Z,550.00
2023-04-29T02:12:58.246Z,549.00
2023-04-29T02:13:58.306Z,550.00
2023-04-29T02:14:58.351Z,550.00
2023-04-29T02:15:58.418Z,547.00
2023-04-29T02:16:58.464Z,544.00
2023-04-29T02:17:58.584Z,543.00
2023-04-29T02:18:58.598Z,544.00
2023-04-29T02:19:58.615Z,545.00
2023-04-29T02:20:58.678Z,546.00
2023-04-29T02:21:58.744Z,547.00
2023-04-29T02:22:58.795Z,548.00
2023-04-29T02:23:58.865Z,548.00
2023-04-29T02:24:58.914Z,549.00
2023-04-29T02:25:58.966Z,548.00
2023-04-29T02:26:59.029Z,548.00
2023-04-29T02:27:59.076Z,550.00
2023-04-29T02:28:59.144Z,549.00
2023-04-29T02:29:59.168Z,549.00
2023-04-29T02:30:59.254Z,549.00
2023-04-29T02:31:59.400Z,552.00
2023-04-29T02:32:59.397Z,550.00
2023-04-29T02:33:59.428Z,549.00
2023-04-29T02:34:59.483Z,547.00
2023-04-29T02:35:59.554Z,546.00
2023-04-29T02:36:59.608Z,545.00
2023-04-29T02:37:59.669Z,542.00
2023-04-29T02:38:59.704Z,544.00
2023-04-29T02:39:59.726Z,543.00
2023-04-29T02:40:59.776Z,543.00
2023-04-29T02:41:59.847Z,544.00
2023-04-29T02:42:59.888Z,544.00
2023-04-29T02:43:59.943Z,545.00
2023-04-29T02:45:00.030Z,545.00
2023-04-29T02:46:00.154Z,545.00
2023-04-29T02:47:00.141Z,546.00
2023-04-29T02:48:00.213Z,544.00
2023-04-29T02:49:00.258Z,544.00
2023-04-29T02:50:00.364Z,544.00
2023-04-29T02:51:00.370Z,544.00
2023-04-29T02:52:00.470Z,545.00
2023-04-29T02:53:00.493Z,546.00
2023-04-29T02:54:00.596Z,544.00
2023-04-29T02:55:00.637Z,544.00
2023-04-29T02:56:00.732Z,543.00
2023-04-29T02:57:00.778Z,544.00
2023-04-29T02:58:00.763Z,545.00
2023-04-29T02:59:00.876Z,547.00
2023-04-29T03:00:00.900Z,548.00
2023-04-29T03:01:01.022Z,550.00
2023-04-29T03:02:01.040Z,548.00
2023-04-29T03:03:01.210Z,546.00
2023-04-29T03:04:01.236Z,543.00
2023-04-29T03:05:01.246Z,542.00
2023-04-29T03:06:01.292Z,542.00
2023-04-29T03:07:01.373Z,539.00
2023-04-29T03:08:01.401Z,537.00
2023-04-29T03:09:01.452Z,536.00
2023-04-29T03:10:01.513Z,539.00
2023-04-29T03:11:01.551Z,540.00
2023-04-29T03:12:01.631Z,542.00
2023-04-29T03:13:01.677Z,540.00
2023-04-29T03:14:01.763Z,540.00
2023-04-29T03:15:01.790Z,537.00
2023-04-29T03:16:01.882Z,539.00
2023-04-29T03:17:01.983Z,538.00
2023-04-29T03:18:02.027Z,534.00
2023-04-29T03:19:02.020Z,533.00
2023-04-29T03:20:02.120Z,532.00
2023-04-29T03:21:02.155Z,532.00
2023-04-29T03:22:02.185Z,531.00
2023-04-29T03:23:02.260Z,533.00
2023-04-29T03:24:02.284Z,534.00
2023-04-29T03:25:02.421Z,534.00
2023-04-29T03:26:02.414Z,532.00
2023-04-29T03:27:02.497Z,533.00
2023-04-29T03:28:02.532Z,532.00
2023-04-29T03:29:02.595Z,534.00
2023-04-29T03:30:02.683Z,535.00
2023-04-29T03:31:02.771Z,535.00
2023-04-29T03:32:02.815Z,534.00
2023-04-29T03:33:02.884Z,535.00
2023-04-29T03:34:02.912Z,536.00
2023-04-29T03:35:02.998Z,534.00
2023-04-29T03:36:03.064Z,534.00
2023-04-29T03:37:03.101Z,532.00
2023-04-29T03:38:03.103Z,532.00
2023-04-29T03:39:03.169Z,532.00
2023-04-29T03:40:03.233Z,533.00
2023-04-29T03:41:03.298Z,535.00
2023-04-29T03:42:03.308Z,537.00
2023-04-29T03:43:03.386Z,539.00
2023-04-29T03:44:03.497Z,541.00
2023-04-29T03:45:03.543Z,540.00
2023-04-29T03:46:03.660Z,539.00
2023-04-29T03:47:03.652Z,538.00
2023-04-29T03:48:03.851Z,537.00
2023-04-29T03:49:03.767Z,534.00
2023-04-29T03:50:03.837Z,535.00
2023-04-29T03:51:03.868Z,537.00
2023-04-29T03:52:03.957Z,538.00
2023-04-29T03:53:04.025Z,538.00
2023-04-29T03:54:04.082Z,539.00
2023-04-29T03:55:04.180Z,539.00
2023-04-29T03:56:04.219Z,538.00
2023-04-29T03:57:04.258Z,536.00
2023-04-29T03:58:04.330Z,536.00
2023-04-29T03:59:04.340Z,536.00
2023-04-29T04:00:04.454Z,534.00
2023-04-29T04:01:04.535Z,534.00
2023-04-29T04:02:04.644Z,535.00
2023-04-29T04:03:05.977Z,535.00
2023-04-29T04:04:04.759Z,534.00
2023-04-29T04:05:04.807Z,533.00
2023-04-29T04:06:04.812Z,532.00
2023-04-29T04:07:04.896Z,533.00
2023-04-29T04:08:04.917Z,535.00
2023-04-29T04:09:05.005Z,537.00
2023-04-29T04:10:05.049Z,535.00
2023-04-29T04:11:05.122Z,536.00
2023-04-29T04:12:05.164Z,536.00
2023-04-29T04:13:05.238Z,535.00
2023-04-29T04:14:05.265Z,536.00
2023-04-29T04:15:05.323Z,537.00
2023-04-29T04:16:05.389Z,539.00
2023-04-29T04:17:05.445Z,541.00
2023-04-29T04:18:05.576Z,540.00
2023-04-29T04:19:05.580Z,539.00
2023-04-29T04:20:05.627Z,540.00
2023-04-29T04:21:05.694Z,539.00
2023-04-29T04:22:05.734Z,539.00
2023-04-29T04:23:05.809Z,541.00
2023-04-29T04:24:05.848Z,542.00
2023-04-29T04:25:05.931Z,543.00
2023-04-29T04:26:06.056Z,541.00
2023-04-29T04:27:06.072Z,538.00
2023-04-29T04:28:06.152Z,540.00
2023-04-29T04:29:06.147Z,538.00
2023-04-29T04:30:06.205Z,535.00
2023-04-29T04:31:06.297Z,535.00
2023-04-29T04:32:06.394Z,532.00
2023-04-29T04:33:06.485Z,533.00
2023-04-29T04:34:06.453Z,532.00
2023-04-29T04:35:06.552Z,536.00
2023-04-29T04:36:06.594Z,539.00
2023-04-29T04:37:06.659Z,542.00
2023-04-29T04:38:06.734Z,539.00
2023-04-29T04:39:06.772Z,539.00
2023-04-29T04:40:06.857Z,540.00
2023-04-29T04:41:06.894Z,542.00
2023-04-29T04:42:06.995Z,545.00
2023-04-29T04:43:07.021Z,546.00
2023-04-29T04:44:07.074Z,545.00
2023-04-29T04:45:07.137Z,546.00
2023-04-29T04:46:07.203Z,543.00
2023-04-29T04:47:07.229Z,542.00
2023-04-29T04:48:07.352Z,541.00
2023-04-29T04:49:07.438Z,541.00
2023-04-29T04:50:07.422Z,540.00
2023-04-29T04:51:07.491Z,539.00
2023-04-29T04:52:07.553Z,540.00
2023-04-29T04:53:07.590Z,541.00
2023-04-29T04:54:07.674Z,539.00
2023-04-29T04:55:07.721Z,540.00
2023-04-29T04:56:07.770Z,541.00
2023-04-29T04:57:07.836Z,541.00
2023-04-29T04:58:07.974Z,541.00
2023-04-29T04:59:07.952Z,540.00
2023-04-29T05:00:08.025Z,542.00
2023-04-29T05:01:08.133Z,541.00
2023-04-29T05:02:08.151Z,541.00
2023-04-29T05:03:08.282Z,542.00
2023-04-29T05:04:08.361Z,541.00
2023-04-29T05:05:08.309Z,542.00
2023-04-29T05:06:08.386Z,541.00
2023-04-29T05:07:08.418Z,539.00
2023-04-29T05:08:08.472Z,538.00
2023-04-29T05:09:08.559Z,538.00
2023-04-29T05:10:08.593Z,538.00
2023-04-29T05:11:08.711Z,537.00
2023-04-29T05:12:08.701Z,537.00
2023-04-29T05:13:08.821Z,538.00
2023-04-29T05:14:08.826Z,538.00
2023-04-29T05:15:08.955Z,538.00
2023-04-29T05:16:08.961Z,541.00
2023-04-29T05:17:08.988Z,542.00
2023-04-29T05:18:09.050Z,545.00
2023-04-29T05:19:09.139Z,544.00
2023-04-29T05:20:09.175Z,543.00
2023-04-29T05:21:09.212Z,541.00
2023-04-29T05:22:09.283Z,541.00
2023-04-29T05:23:09.356Z,542.00
2023-04-29T05:24:09.402Z,544.00
2023-04-29T05:25:09.429Z,541.00
2023-04-29T05:26:09.514Z,538.00
2023-04-29T05:27:09.612Z,538.00
2023-04-29T05:28:09.579Z,539.00
2023-04-29T05:29:09.701Z,543.00
2023-04-29T05:30:09.682Z,543.00
2023-04-29T05:31:09.862Z,543.00
2023-04-29T05:32:09.859Z,541.00
2023-04-29T05:33:09.870Z,540.00
2023-04-29T05:34:09.989Z,541.00
2023-04-29T05:35:09.986Z,542.00
2023-04-29T05:36:10.011Z,541.00
2023-04-29T05:37:10.096Z,539.00
2023-04-29T05:38:10.164Z,537.00
2023-04-29T05:39:10.169Z,538.00
2023-04-29T05:40:10.266Z,537.00
2023-04-29T05:41:10.310Z,538.00
2023-04-29T05:42:10.399Z,539.00
2023-04-29T05:43:10.399Z,539.00
2023-04-29T05:44:10.485Z,539.00
2023-04-29T05:45:10.520Z,540.00
2023-04-29T05:46:10.631Z,539.00
2023-04-29T05:47:10.667Z,540.00
2023-04-29T05:48:10.685Z,541.00
2023-04-29T05:49:10.754Z,538.00
2023-04-29T05:50:10.818Z,538.00
2023-04-29T05:51:10.936Z,540.00
2023-04-29T05:52:10.920Z,539.00
2023-04-29T05:53:10.967Z,539.00
2023-04-29T05:54:10.996Z,540.00
2023-04-29T05:55:11.094Z,542.00
2023-04-29T05:56:11.161Z,541.00
2023-04-29T05:57:11.158Z,540.00
2023-04-29T05:58:11.292Z,540.00
2023-04-29T05:59:11.276Z,540.00
2023-04-29T06:00:11.297Z,541.00
2023-04-29T06:01:11.422Z,543.00
2023-04-29T06:02:11.516Z,541.00
2023-04-29T06:03:11.584Z,543.00
2023-04-29T06:04:11.704Z,540.00
2023-04-29T06:05:11.873Z,541.00
2023-04-29T06:06:11.712Z,542.00
2023-04-29T06:07:11.684Z,539.00
2023-04-29T06:08:11.754Z,538.00
2023-04-29T06:09:23.904Z,537.00
2023-04-29T06:10:12.801Z,534.00
2023-04-29T06:11:11.709Z,535.00
2023-04-29T06:12:11.788Z,535.00
2023-04-29T06:13:11.718Z,537.00
2023-04-29T06:14:11.721Z,539.00
2023-04-29T06:15:11.726Z,540.00
2023-04-29T06:16:11.725Z,538.00
2023-04-29T06:17:11.710Z,538.00
2023-04-29T06:18:11.713Z,536.00
2023-04-29T06:19:12.385Z,535.00
2023-04-29T06:20:11.676Z,535.00
2023-04-29T06:21:11.662Z,537.00
2023-04-29T06:22:11.682Z,536.00
2023-04-29T06:23:11.695Z,539.00
2023-04-29T06:24:11.652Z,541.00
2023-04-29T06:25:11.662Z,542.00
2023-04-29T06:26:11.673Z,544.00
2023-04-29T06:27:11.635Z,543.00
2023-04-29T06:28:11.679Z,542.00
2023-04-29T06:29:11.716Z,541.00
2023-04-29T06:30:11.723Z,542.00
2023-04-29T06:31:11.794Z,543.00
2023-04-29T06:32:11.707Z,543.00
2023-04-29T06:33:11.811Z,547.00
2023-04-29T06:34:11.757Z,545.00
2023-04-29T06:35:11.767Z,547.00
2023-04-29T06:36:11.792Z,545.00
2023-04-29T06:37:11.841Z,547.00
2023-04-29T06:38:11.855Z,548.00
2023-04-29T06:39:11.801Z,546.00
2023-04-29T06:40:11.875Z,544.00
2023-04-29T06:41:11.817Z,544.00
2023-04-29T06:42:11.789Z,545.00
2023-04-29T06:43:11.811Z,547.00
2023-04-29T06:44:11.832Z,546.00
2023-04-29T06:45:11.849Z,546.00
2023-04-29T06:46:11.900Z,542.00
2023-04-29T06:47:12.111Z,542.00
2023-04-29T06:48:12.252Z,543.00
2023-04-29T06:49:12.087Z,541.00
2023-04-29T06:50:12.146Z,541.00
2023-04-29T06:51:12.240Z,542.00
2023-04-29T06:52:12.308Z,541.00
2023-04-29T06:53:12.351Z,542.00
2023-04-29T06:54:12.392Z,544.00
2023-04-29T06:55:12.476Z,544.00
2023-04-29T06:56:12.748Z,543.00
2023-04-29T06:57:12.553Z,541.00
2023-04-29T06:58:12.626Z,539.00
2023-04-29T06:59:12.667Z,538.00
2023-04-29T07:00:12.733Z,538.00
2023-04-29T07:01:12.877Z,538.00
2023-04-29T07:02:12.864Z,541.00
2023-04-29T07:03:12.993Z,540.00
2023-04-29T07:04:13.002Z,540.00
2023-04-29T07:05:13.025Z,540.00
2023-04-29T07:06:13.071Z,539.00
2023-04-29T07:07:13.101Z,538.00
2023-04-29T07:08:13.120Z,540.00
2023-04-29T07:09:13.176Z,539.00
2023-04-29T07:10:13.192Z,540.00
2023-04-29T07:11:13.215Z,541.00
2023-04-29T07:12:13.230Z,542.00
2023-04-29T07:13:13.249Z,541.00
2023-04-29T07:14:13.205Z,540.00
2023-04-29T07:15:13.238Z,540.00
2023-04-29T07:16:13.290Z,541.00
2023-04-29T07:17:14.341Z,540.00
2023-04-29T07:18:13.247Z,540.00
2023-04-29T07:19:13.260Z,539.00
2023-04-29T07:20:13.218Z,540.00
2023-04-29T07:21:13.274Z,541.00
2023-04-29T07:22:13.336Z,541.00
2023-04-29T07:23:13.303Z,537.00
2023-04-29T07:24:13.275Z,537.00
2023-04-29T07:25:13.284Z,540.00
2023-04-29T07:26:13.288Z,538.00
2023-04-29T07:27:13.348Z,537.00
2023-04-29T07:28:13.274Z,536.00
2023-04-29T07:29:13.288Z,534.00
2023-04-29T07:30:13.354Z,534.00
2023-04-29T07:31:13.447Z,535.00
2023-04-29T07:32:13.566Z,535.00
2023-04-29T07:33:13.475Z,535.00
2023-04-29T07:34:13.475Z,534.00
2023-04-29T07:35:13.468Z,537.00
2023-04-29T07:36:13.571Z,538.00
2023-04-29T07:37:13.483Z,538.00
2023-04-29T07:38:13.529Z,538.00
2023-04-29T07:39:13.539Z,536.00
2023-04-29T07:40:13.615Z,535.00
2023-04-29T07:41:13.762Z,533.00
2023-04-29T07:42:13.678Z,535.00
2023-04-29T07:43:13.755Z,535.00
2023-04-29T07:44:13.788Z,536.00
2023-04-29T07:45:13.940Z,535.00
2023-04-29T07:46:14.007Z,536.00
2023-04-29T07:47:14.013Z,535.00
2023-04-29T07:48:14.081Z,533.00
2023-04-29T07:49:14.116Z,534.00
2023-04-29T07:50:14.182Z,536.00
2023-04-29T07:51:14.266Z,536.00
2023-04-29T07:52:14.293Z,536.00
2023-04-29T07:53:14.365Z,535.00
2023-04-29T07:54:14.431Z,534.00
2023-04-29T07:55:14.477Z,536.00
2023-04-29T07:56:14.529Z,536.00
2023-04-29T07:57:14.574Z,537.00
2023-04-29T07:58:14.645Z,538.00
2023-04-29T07:59:14.711Z,539.00
2023-04-29T08:00:14.769Z,539.00
2023-04-29T08:01:14.785Z,538.00
2023-04-29T08:02:14.811Z,537.00
2023-04-29T08:03:15.042Z,538.00
2023-04-29T08:04:15.111Z,533.00
2023-04-29T08:05:15.226Z,534.00
2023-04-29T08:06:15.106Z,532.00
2023-04-29T08:07:15.028Z,534.00
2023-04-29T08:08:15.031Z,533.00
2023-04-29T08:09:15.190Z,534.00
2023-04-29T08:10:16.069Z,535.00
2023-04-29T08:11:15.075Z,535.00
2023-04-29T08:12:15.170Z,536.00
2023-04-29T08:13:15.177Z,536.00
2023-04-29T08:14:15.174Z,536.00
2023-04-29T08:15:15.157Z,535.00
2023-04-29T08:16:15.230Z,534.00
2023-04-29T08:17:15.195Z,536.00
2023-04-29T08:18:15.176Z,537.00
2023-04-29T08:19:15.203Z,538.00
2023-04-29T08:20:15.222Z,537.00
2023-04-29T08:21:15.169Z,540.00
2023-04-29T08:22:15.172Z,541.00
2023-04-29T08:23:15.246Z,541.00
2023-04-29T08:24:15.183Z,544.00
2023-04-29T08:25:15.252Z,542.00
2023-04-29T08:26:15.229Z,543.00
2023-04-29T08:27:15.261Z,539.00
2023-04-29T08:28:15.275Z,539.00
2023-04-29T08:29:15.267Z,541.00
2023-04-29T08:30:15.308Z,543.00
2023-04-29T08:31:15.393Z,542.00
2023-04-29T08:32:15.451Z,543.00
2023-04-29T08:33:15.509Z,543.00
2023-04-29T08:34:15.513Z,543.00
2023-04-29T08:35:15.608Z,541.00
2023-04-29T08:36:15.668Z,539.00
2023-04-29T08:37:16.991Z,541.00
2023-04-29T08:38:15.749Z,542.00
2023-04-29T08:39:15.696Z,542.00
2023-04-29T08:40:15.710Z,538.00
2023-04-29T08:41:15.694Z,536.00
2023-04-29T08:42:15.675Z,538.00
2023-04-29T08:43:15.682Z,535.00
2023-04-29T08:44:15.683Z,535.00
2023-04-29T08:45:15.693Z,537.00
2023-04-29T08:46:15.724Z,539.00
2023-04-29T08:47:15.639Z,539.00
2023-04-29T08:48:15.707Z,539.00
2023-04-29T08:49:15.654Z,540.00
2023-04-29T08:50:15.628Z,540.00
2023-04-29T08:51:15.634Z,541.00
2023-04-29T08:52:15.618Z,539.00
2023-04-29T08:53:15.640Z,537.00
2023-04-29T08:54:15.597Z,539.00
2023-04-29T08:55:15.596Z,539.00
2023-04-29T08:56:15.605Z,539.00
2023-04-29T08:57:15.578Z,538.00
2023-04-29T08:58:15.623Z,539.00
2023-04-29T08:59:15.615Z,541.00
2023-04-29T09:00:15.595Z,540.00
2023-04-29T09:01:15.579Z,539.00
2023-04-29T09:02:15.552Z,541.00
2023-04-29T09:03:15.595Z,539.00
2023-04-29T09:04:15.578Z,536.00
2023-04-29T09:05:15.573Z,536.00
2023-04-29T09:06:15.556Z,532.00
2023-04-29T09:07:15.554Z,533.00
2023-04-29T09:08:15.486Z,535.00
2023-04-29T09:09:15.556Z,535.00
2023-04-29T09:10:15.496Z,536.00
2023-04-29T09:11:15.491Z,534.00
2023-04-29T09:12:15.502Z,534.00
2023-04-29T09:13:15.469Z,534.00
2023-04-29T09:14:15.498Z,535.00
2023-04-29T09:15:15.476Z,534.00
2023-04-29T09:16:15.445Z,536.00
2023-04-29T09:17:15.406Z,537.00
2023-04-29T09:18:15.452Z,538.00
2023-04-29T09:19:15.444Z,538.00
2023-04-29T09:20:15.456Z,539.00
2023-04-29T09:21:15.423Z,539.00
2023-04-29T09:22:15.469Z,540.00
2023-04-29T09:23:15.537Z,540.00
2023-04-29T09:24:15.583Z,542.00
2023-04-29T09:25:15.606Z,541.00
2023-04-29T09:26:15.643Z,543.00
2023-04-29T09:27:15.686Z,543.00
2023-04-29T09:28:15.713Z,541.00
2023-04-29T09:29:15.804Z,543.00
2023-04-29T09:30:15.806Z,544.00
2023-04-29T09:31:15.866Z,546.00
2023-04-29T09:32:15.897Z,543.00
2023-04-29T09:33:15.946Z,543.00
2023-04-29T09:34:16.025Z,540.00
2023-04-29T09:35:16.041Z,539.00
2023-04-29T09:36:16.109Z,540.00
2023-04-29T09:37:16.144Z,541.00
2023-04-29T09:38:16.212Z,544.00
2023-04-29T09:39:16.212Z,542.00
2023-04-29T09:40:23.054Z,540.00
2023-04-29T09:42:35.347Z,526.00
2023-04-29T09:44:54.625Z,532.00
2023-04-29T09:45:54.468Z,537.00
2023-04-29T09:46:54.448Z,538.00
2023-04-29T09:47:54.479Z,537.00
2023-04-29T09:48:54.434Z,535.00
2023-04-29T09:49:54.420Z,533.00
2023-04-29T09:50:54.399Z,534.00
2023-04-29T09:53:12.995Z,533.00
2023-04-29T09:54:13.006Z,540.00
2023-04-29T09:55:13.010Z,539.00
2023-04-29T10:00:30.360Z,539.00
2023-04-29T10:01:30.418Z,540.00
2023-04-29T10:02:30.440Z,539.00
2023-04-29T10:03:30.489Z,538.00
2023-04-29T10:04:30.403Z,534.00
2023-04-29T10:05:30.327Z,534.00
2023-04-29T10:06:30.295Z,531.00
2023-04-29T10:07:30.316Z,533.00
2023-04-29T10:08:30.318Z,535.00
2023-04-29T10:09:30.318Z,536.00
2023-04-29T10:10:30.571Z,536.00
2023-04-29T10:11:30.306Z,536.00
2023-04-29T10:12:30.257Z,539.00
2023-04-29T10:13:30.238Z,539.00
2023-04-29T10:14:30.280Z,539.00
2023-04-29T10:15:30.287Z,537.00
2023-04-29T10:16:30.466Z,537.00
2023-04-29T10:17:30.264Z,535.00
2023-04-29T10:18:30.355Z,534.00
2023-04-29T10:19:30.288Z,532.00
2023-04-29T10:20:30.383Z,530.00
2023-04-29T10:21:30.387Z,530.00
2023-04-29T10:22:30.482Z,531.00
2023-04-29T10:23:30.505Z,534.00
2023-04-29T10:24:30.590Z,536.00
2023-04-29T10:25:30.597Z,537.00
2023-04-29T10:26:30.706Z,534.00
2023-04-29T10:27:30.713Z,533.00
2023-04-29T10:28:30.708Z,535.00
2023-04-29T10:29:30.742Z,535.00
2023-04-29T10:30:30.796Z,535.00
2023-04-29T10:31:30.863Z,536.00
2023-04-29T10:32:39.961Z,537.00
2023-04-29T10:33:31.879Z,537.00
2023-04-29T10:34:30.871Z,539.00
2023-04-29T10:35:30.881Z,539.00
2023-04-29T10:36:30.876Z,539.00
2023-04-29T10:37:30.889Z,539.00
2023-04-29T10:38:30.848Z,540.00
2023-04-29T10:39:30.836Z,541.00
2023-04-29T10:40:30.831Z,540.00
2023-04-29T10:41:30.841Z,539.00
2023-04-29T10:42:30.852Z,539.00
2023-04-29T10:43:30.817Z,540.00
2023-04-29T10:44:30.835Z,540.00
2023-04-29T10:45:30.838Z,539.00
2023-04-29T10:46:30.947Z,538.00
2023-04-29T10:47:30.971Z,537.00
2023-04-29T10:48:30.984Z,535.00
2023-04-29T10:49:30.991Z,534.00
2023-04-29T10:50:31.068Z,531.00
2023-04-29T10:51:31.100Z,530.00
2023-04-29T10:52:31.129Z,531.00
2023-04-29T10:53:31.124Z,534.00
2023-04-29T10:54:31.199Z,533.00
2023-04-29T10:55:31.299Z,532.00
2023-04-29T10:56:31.321Z,531.00
2023-04-29T10:57:31.326Z,533.00
2023-04-29T10:58:31.482Z,533.00
2023-04-29T10:59:31.449Z,533.00
2023-04-29T11:00:31.454Z,536.00
2023-04-29T11:01:31.572Z,536.00
2023-04-29T11:02:31.600Z,536.00
2023-04-29T11:03:31.713Z,534.00
2023-04-29T11:04:31.838Z,537.00
2023-04-29T11:05:31.712Z,539.00
2023-04-29T11:06:31.765Z,538.00
2023-04-29T11:07:31.737Z,539.00
2023-04-29T11:08:31.793Z,538.00
2023-04-29T11:09:31.914Z,536.00
2023-04-29T11:10:31.898Z,537.00
2023-04-29T11:11:31.912Z,538.00
2023-04-29T11:12:31.980Z,536.00
2023-04-29T11:13:32.041Z,536.00
2023-04-29T11:14:32.068Z,537.00
2023-04-29T11:15:32.080Z,538.00
2023-04-29T11:16:32.130Z,537.00
2023-04-29T11:17:32.240Z,536.00
2023-04-29T11:18:32.226Z,536.00
2023-04-29T11:19:32.270Z,534.00
2023-04-29T11:20:32.332Z,535.00
2023-04-29T11:21:32.381Z,534.00
2023-04-29T11:22:32.452Z,532.00
2023-04-29T11:23:32.445Z,531.00
2023-04-29T11:24:32.505Z,531.00
2023-04-29T11:25:32.543Z,530.00
2023-04-29T11:26:32.653Z,529.00
2023-04-29T11:27:32.588Z,531.00
2023-04-29T11:28:32.684Z,529.00
2023-04-29T11:29:32.708Z,532.00
2023-04-29T11:30:32.791Z,534.00
2023-04-29T11:31:32.916Z,535.00
2023-04-29T11:32:33.113Z,534.00
2023-04-29T11:33:32.970Z,533.00
2023-04-29T11:34:32.962Z,533.00
2023-04-29T11:35:33.035Z,532.00
2023-04-29T11:36:33.033Z,532.00
2023-04-29T11:37:33.105Z,533.00
2023-04-29T11:38:33.153Z,532.00
2023-04-29T11:39:33.203Z,534.00
2023-04-29T11:40:33.265Z,536.00
2023-04-29T11:41:33.302Z,533.00
2023-04-29T11:42:33.302Z,532.00
2023-04-29T11:43:33.341Z,532.00
2023-04-29T11:44:33.451Z,532.00
2023-04-29T11:45:33.468Z,534.00
2023-04-29T11:46:33.552Z,535.00
2023-04-29T11:47:33.660Z,533.00
2023-04-29T11:48:33.634Z,530.00
2023-04-29T11:49:33.705Z,528.00
2023-04-29T11:50:33.675Z,526.00
2023-04-29T11:51:33.766Z,528.00
2023-04-29T11:52:33.782Z,530.00
2023-04-29T11:53:33.820Z,531.00
2023-04-29T11:54:33.874Z,532.00
2023-04-29T11:55:34.192Z,531.00
2023-04-29T11:56:33.996Z,531.00
2023-04-29T11:57:34.002Z,532.00
2023-04-29T11:58:34.075Z,532.00
2023-04-29T11:59:34.231Z,532.00
2023-04-29T12:00:34.203Z,533.00
2023-04-29T12:01:34.224Z,532.00
2023-04-29T12:02:34.311Z,533.00
2023-04-29T12:03:34.433Z,532.00
2023-04-29T12:04:34.539Z,530.00
2023-04-29T12:05:34.376Z,530.00
2023-04-29T12:06:34.398Z,530.00
2023-04-29T12:07:34.483Z,531.00
2023-04-29T12:08:34.544Z,530.00
2023-04-29T12:09:34.547Z,530.00
2023-04-29T12:10:34.599Z,527.00
2023-04-29T12:11:34.667Z,529.00
2023-04-29T12:12:34.712Z,531.00
2023-04-29T12:13:34.746Z,532.00
2023-04-29T12:14:34.783Z,530.00
2023-04-29T12:15:34.849Z,532.00
2023-04-29T12:16:34.956Z,534.00
2023-04-29T12:17:35.020Z,533.00
2023-04-29T12:18:34.991Z,533.00
2023-04-29T12:19:35.018Z,535.00
2023-04-29T12:20:35.119Z,533.00
2023-04-29T12:21:35.147Z,533.00
2023-04-29T12:22:35.227Z,532.00
2023-04-29T12:23:35.261Z,532.00
2023-04-29T12:24:35.309Z,534.00
2023-04-29T12:25:35.350Z,535.00
2023-04-29T12:26:35.468Z,534.00
2023-04-29T12:27:35.429Z,533.00
2023-04-29T12:28:35.501Z,533.00
2023-04-29T12:29:35.540Z,534.00
2023-04-29T12:30:35.595Z,530.00
2023-04-29T12:31:35.636Z,529.00
2023-04-29T12:32:35.699Z,530.00
2023-04-29T12:33:35.706Z,531.00
2023-04-29T12:34:35.713Z,532.00
2023-04-29T12:35:35.705Z,533.00
2023-04-29T12:36:35.723Z,533.00
2023-04-29T12:37:35.801Z,534.00